sensor_id;sensor_type;location;lat;lon;timestamp;temperature;humidity
18305;DHT22;9278;52.156;21.048;2023-04-24T00:00:58;12.30;1.00
18305;DHT22;9278;52.156;21.048;2023-04-24T00:03:28;12.20;1.00
18305;DHT22;9278;52.156;21.048;2023-04-24T00:08:26;11.90;1.00
18305;DHT22;9278;52.156;21.048;2023-04-24T00:10:55;11.80;1.00
18305;DHT22;9278;52.156;21.048;2023-04-24T00:13:23;11.70;1.00
18305;DHT22;9278;52.156;21.048;2023-04-24T00:15:52;11.80;1.00
18305;DHT22;9278;52.156;21.048;2023-04-24T00:18:20;11.70;1.00
18305;DHT22;9278;52.156;21.048;2023-04-24T00:20:48;11.60;1.00
18305;DHT22;9278;52.156;21.048;2023-04-24T00:23:16;11.50;1.00
18305;DHT22;9278;52.156;21.048;2023-04-24T00:25:44;11.40;1.00
18305;DHT22;9278;52.156;21.048;2023-04-24T00:28:14;11.40;1.00
18305;DHT22;9278;52.156;21.048;2023-04-24T00:30:42;11.50;1.00
18305;DHT22;9278;52.156;21.048;2023-04-24T00:33:10;13.10;1.00
18305;DHT22;9278;52.156;21.048;2023-04-24T00:35:38;11.50;1.00
18305;DHT22;9278;52.156;21.048;2023-04-24T00:38:07;11.40;1.00
18305;DHT22;9278;52.156;21.048;2023-04-24T00:40:35;11.40;1.00
18305;DHT22;9278;52.156;21.048;2023-04-24T00:43:03;11.50;99.90
18305;DHT22;9278;52.156;21.048;2023-04-24T00:45:35;11.30;1.00
18305;DHT22;9278;52.156;21.048;2023-04-24T00:48:04;11.30;1.00
18305;DHT22;9278;52.156;21.048;2023-04-24T00:50:32;11.40;1.00
18305;DHT22;9278;52.156;21.048;2023-04-24T00:53:00;11.00;1.00
18305;DHT22;9278;52.156;21.048;2023-04-24T00:55:29;11.40;1.00
18305;DHT22;9278;52.156;21.048;2023-04-24T00:57:58;11.30;1.00
18305;DHT22;9278;52.156;21.048;2023-04-24T01:00:27;11.20;1.00
18305;DHT22;9278;52.156;21.048;2023-04-24T01:02:58;11.10;1.00
18305;DHT22;9278;52.156;21.048;2023-04-24T01:05:27;11.30;1.00
18305;DHT22;9278;52.156;21.048;2023-04-24T01:07:56;11.40;1.00
18305;DHT22;9278;52.156;21.048;2023-04-24T01:10:26;11.30;1.00
18305;DHT22;9278;52.156;21.048;2023-04-24T01:12:55;11.30;1.00
18305;DHT22;9278;52.156;21.048;2023-04-24T01:15:23;11.30;1.00
18305;DHT22;9278;52.156;21.048;2023-04-24T01:17:52;11.50;1.00
18305;DHT22;9278;52.156;21.048;2023-04-24T01:20:22;11.70;1.00
18305;DHT22;9278;52.156;21.048;2023-04-24T01:22:55;11.80;1.00
18305;DHT22;9278;52.156;21.048;2023-04-24T01:25:25;11.90;1.00
18305;DHT22;9278;52.156;21.048;2023-04-24T01:27:56;13.60;1.00
18305;DHT22;9278;52.156;21.048;2023-04-24T01:30:25;11.80;1.00
18305;DHT22;9278;52.156;21.048;2023-04-24T01:32:53;11.80;1.00
18305;DHT22;9278;52.156;21.048;2023-04-24T01:35:22;11.60;1.00
18305;DHT22;9278;52.156;21.048;2023-04-24T01:37:50;11.50;1.00
18305;DHT22;9278;52.156;21.048;2023-04-24T01:40:23;11.50;1.00
18305;DHT22;9278;52.156;21.048;2023-04-24T01:42:51;11.50;1.00
18305;DHT22;9278;52.156;21.048;2023-04-24T01:45:20;11.40;1.00
18305;DHT22;9278;52.156;21.048;2023-04-24T01:47:49;11.40;1.00
18305;DHT22;9278;52.156;21.048;2023-04-24T01:50:18;11.40;1.00
18305;DHT22;9278;52.156;21.048;2023-04-24T01:52:46;11.30;1.00
18305;DHT22;9278;52.156;21.048;2023-04-24T01:55:15;11.30;1.00
18305;DHT22;9278;52.156;21.048;2023-04-24T01:57:46;11.20;1.00
18305;DHT22;9278;52.156;21.048;2023-04-24T02:00:14;11.10;1.00
18305;DHT22;9278;52.156;21.048;2023-04-24T02:02:44;11.10;1.00
18305;DHT22;9278;52.156;21.048;2023-04-24T02:05:14;11.00;1.00
18305;DHT22;9278;52.156;21.048;2023-04-24T02:07:42;10.90;1.00
18305;DHT22;9278;52.156;21.048;2023-04-24T02:10:11;10.80;1.00
18305;DHT22;9278;52.156;21.048;2023-04-24T02:12:42;10.80;1.00
18305;DHT22;9278;52.156;21.048;2023-04-24T02:15:12;10.80;1.00
18305;DHT22;9278;52.156;21.048;2023-04-24T02:17:40;10.90;1.00
18305;DHT22;9278;52.156;21.048;2023-04-24T02:20:08;10.80;1.00
18305;DHT22;9278;52.156;21.048;2023-04-24T02:22:37;10.70;1.00
18305;DHT22;9278;52.156;21.048;2023-04-24T02:25:06;10.70;1.00
18305;DHT22;9278;52.156;21.048;2023-04-24T02:27:35;10.70;1.00
18305;DHT22;9278;52.156;21.048;2023-04-24T02:30:06;10.70;1.00
18305;DHT22;9278;52.156;21.048;2023-04-24T02:32:36;10.60;1.00
18305;DHT22;9278;52.156;21.048;2023-04-24T02:35:06;10.70;1.00
18305;DHT22;9278;52.156;21.048;2023-04-24T02:37:34;10.50;1.00
18305;DHT22;9278;52.156;21.048;2023-04-24T02:40:04;10.40;1.00
18305;DHT22;9278;52.156;21.048;2023-04-24T02:42:33;10.40;1.00
18305;DHT22;9278;52.156;21.048;2023-04-24T02:47:29;10.40;1.00
18305;DHT22;9278;52.156;21.048;2023-04-24T02:50:01;10.40;99.90
18305;DHT22;9278;52.156;21.048;2023-04-24T02:52:29;10.40;1.00
18305;DHT22;9278;52.156;21.048;2023-04-24T02:54:57;10.30;1.00
18305;DHT22;9278;52.156;21.048;2023-04-24T02:57:26;10.30;1.00
18305;DHT22;9278;52.156;21.048;2023-04-24T03:02:22;10.20;1.00
18305;DHT22;9278;52.156;21.048;2023-04-24T03:04:51;10.20;1.00
18305;DHT22;9278;52.156;21.048;2023-04-24T03:07:21;10.10;1.00
18305;DHT22;9278;52.156;21.048;2023-04-24T03:09:51;10.00;1.00
18305;DHT22;9278;52.156;21.048;2023-04-24T03:12:19;9.90;1.00
18305;DHT22;9278;52.156;21.048;2023-04-24T03:14:47;9.90;1.00
18305;DHT22;9278;52.156;21.048;2023-04-24T03:17:15;9.80;1.00
18305;DHT22;9278;52.156;21.048;2023-04-24T03:19:43;9.90;1.00
18305;DHT22;9278;52.156;21.048;2023-04-24T03:22:12;9.70;1.00
18305;DHT22;9278;52.156;21.048;2023-04-24T03:24:42;9.60;1.00
18305;DHT22;9278;52.156;21.048;2023-04-24T03:27:14;9.60;1.00
18305;DHT22;9278;52.156;21.048;2023-04-24T03:30:05;9.70;99.90
18305;DHT22;9278;52.156;21.048;2023-04-24T03:35:14;9.70;1.00
18305;DHT22;9278;52.156;21.048;2023-04-24T03:37:42;9.80;1.00
18305;DHT22;9278;52.156;21.048;2023-04-24T03:40:30;9.70;99.90
18305;DHT22;9278;52.156;21.048;2023-04-24T03:43:02;9.70;99.90
18305;DHT22;9278;52.156;21.048;2023-04-24T03:45:31;9.60;99.90
18305;DHT22;9278;52.156;21.048;2023-04-24T03:47:59;9.70;99.90
18305;DHT22;9278;52.156;21.048;2023-04-24T03:50:28;9.80;99.90
18305;DHT22;9278;52.156;21.048;2023-04-24T03:52:58;9.90;99.90
18305;DHT22;9278;52.156;21.048;2023-04-24T03:55:37;9.90;99.90
18305;DHT22;9278;52.156;21.048;2023-04-24T03:58:05;10.10;99.90
18305;DHT22;9278;52.156;21.048;2023-04-24T04:00:33;10.20;99.90
18305;DHT22;9278;52.156;21.048;2023-04-24T04:03:22;10.30;99.90
18305;DHT22;9278;52.156;21.048;2023-04-24T04:05:50;10.40;99.90
18305;DHT22;9278;52.156;21.048;2023-04-24T04:08:20;10.60;99.90
18305;DHT22;9278;52.156;21.048;2023-04-24T04:10:49;10.80;99.90
18305;DHT22;9278;52.156;21.048;2023-04-24T04:13:17;10.90;99.90
18305;DHT22;9278;52.156;21.048;2023-04-24T04:15:46;11.10;99.90
18305;DHT22;9278;52.156;21.048;2023-04-24T04:18:14;11.20;99.90
18305;DHT22;9278;52.156;21.048;2023-04-24T04:20:43;11.20;99.90
18305;DHT22;9278;52.156;21.048;2023-04-24T04:23:13;12.60;99.90
18305;DHT22;9278;52.156;21.048;2023-04-24T04:26:06;11.30;99.90
18305;DHT22;9278;52.156;21.048;2023-04-24T04:28:52;11.30;99.90
18305;DHT22;9278;52.156;21.048;2023-04-24T04:31:21;11.30;99.90
18305;DHT22;9278;52.156;21.048;2023-04-24T04:33:50;11.30;99.90
18305;DHT22;9278;52.156;21.048;2023-04-24T04:36:19;11.40;99.90
18305;DHT22;9278;52.156;21.048;2023-04-24T04:38:52;11.40;99.90
18305;DHT22;9278;52.156;21.048;2023-04-24T04:41:49;11.50;99.90
18305;DHT22;9278;52.156;21.048;2023-04-24T04:44:19;11.50;99.90
18305;DHT22;9278;52.156;21.048;2023-04-24T04:46:48;12.50;99.90
18305;DHT22;9278;52.156;21.048;2023-04-24T04:51:58;11.80;99.90
18305;DHT22;9278;52.156;21.048;2023-04-24T04:54:27;11.80;99.90
18305;DHT22;9278;52.156;21.048;2023-04-24T04:56:58;11.70;99.90
18305;DHT22;9278;52.156;21.048;2023-04-24T04:59:30;12.00;99.90
18305;DHT22;9278;52.156;21.048;2023-04-24T05:02:04;12.00;99.90
18305;DHT22;9278;52.156;21.048;2023-04-24T05:04:32;12.10;99.90
18305;DHT22;9278;52.156;21.048;2023-04-24T05:07:01;12.20;99.90
18305;DHT22;9278;52.156;21.048;2023-04-24T05:09:33;12.30;99.90
18305;DHT22;9278;52.156;21.048;2023-04-24T05:12:05;12.40;99.90
18305;DHT22;9278;52.156;21.048;2023-04-24T05:14:41;12.50;99.90
18305;DHT22;9278;52.156;21.048;2023-04-24T05:17:11;12.60;99.90
18305;DHT22;9278;52.156;21.048;2023-04-24T05:22:09;12.80;99.90
18305;DHT22;9278;52.156;21.048;2023-04-24T05:24:46;13.00;99.90
18305;DHT22;9278;52.156;21.048;2023-04-24T05:27:38;13.20;99.90
18305;DHT22;9278;52.156;21.048;2023-04-24T05:30:13;13.20;99.90
18305;DHT22;9278;52.156;21.048;2023-04-24T05:35:12;13.60;99.90
18305;DHT22;9278;52.156;21.048;2023-04-24T05:37:41;13.80;99.90
18305;DHT22;9278;52.156;21.048;2023-04-24T05:40:10;14.00;99.90
18305;DHT22;9278;52.156;21.048;2023-04-24T05:42:40;14.20;99.90
18305;DHT22;9278;52.156;21.048;2023-04-24T05:45:09;14.40;99.90
18305;DHT22;9278;52.156;21.048;2023-04-24T05:47:41;14.50;99.90
18305;DHT22;9278;52.156;21.048;2023-04-24T05:50:17;14.50;99.90
18305;DHT22;9278;52.156;21.048;2023-04-24T05:52:48;14.40;99.90
18305;DHT22;9278;52.156;21.048;2023-04-24T05:55:24;14.40;99.90
18305;DHT22;9278;52.156;21.048;2023-04-24T05:57:55;14.50;99.90
18305;DHT22;9278;52.156;21.048;2023-04-24T06:00:25;14.60;99.90
18305;DHT22;9278;52.156;21.048;2023-04-24T06:03:01;14.60;99.90
18305;DHT22;9278;52.156;21.048;2023-04-24T06:05:31;14.60;99.90
18305;DHT22;9278;52.156;21.048;2023-04-24T06:08:02;14.60;99.90
18305;DHT22;9278;52.156;21.048;2023-04-24T06:10:35;14.60;99.90
18305;DHT22;9278;52.156;21.048;2023-04-24T06:13:06;14.60;99.90
18305;DHT22;9278;52.156;21.048;2023-04-24T06:15:37;14.80;99.90
18305;DHT22;9278;52.156;21.048;2023-04-24T06:18:08;14.70;99.90
18305;DHT22;9278;52.156;21.048;2023-04-24T06:20:39;14.70;99.90
18305;DHT22;9278;52.156;21.048;2023-04-24T06:23:09;14.70;99.90
18305;DHT22;9278;52.156;21.048;2023-04-24T06:25:37;14.70;99.90
18305;DHT22;9278;52.156;21.048;2023-04-24T06:28:07;14.90;99.90
18305;DHT22;9278;52.156;21.048;2023-04-24T06:30:35;14.90;99.90
18305;DHT22;9278;52.156;21.048;2023-04-24T06:33:03;15.00;99.90
18305;DHT22;9278;52.156;21.048;2023-04-24T06:35:47;15.10;99.90
18305;DHT22;9278;52.156;21.048;2023-04-24T06:38:15;15.10;99.90
18305;DHT22;9278;52.156;21.048;2023-04-24T06:40:43;15.20;99.90
18305;DHT22;9278;52.156;21.048;2023-04-24T06:43:13;15.40;99.90
18305;DHT22;9278;52.156;21.048;2023-04-24T06:45:42;15.40;99.90
18305;DHT22;9278;52.156;21.048;2023-04-24T06:48:11;15.40;99.90
18305;DHT22;9278;52.156;21.048;2023-04-24T06:50:39;15.40;99.90
18305;DHT22;9278;52.156;21.048;2023-04-24T06:53:07;15.50;99.90
18305;DHT22;9278;52.156;21.048;2023-04-24T06:55:38;15.50;99.90
18305;DHT22;9278;52.156;21.048;2023-04-24T06:58:06;15.60;99.90
18305;DHT22;9278;52.156;21.048;2023-04-24T07:00:36;15.80;99.90
18305;DHT22;9278;52.156;21.048;2023-04-24T07:03:04;16.10;99.90
18305;DHT22;9278;52.156;21.048;2023-04-24T07:05:33;16.50;99.90
18305;DHT22;9278;52.156;21.048;2023-04-24T07:08:03;16.80;99.90
18305;DHT22;9278;52.156;21.048;2023-04-24T07:10:31;16.90;99.90
18305;DHT22;9278;52.156;21.048;2023-04-24T07:13:02;17.10;99.90
18305;DHT22;9278;52.156;21.048;2023-04-24T07:15:30;17.20;99.90
18305;DHT22;9278;52.156;21.048;2023-04-24T07:18:00;17.80;99.90
18305;DHT22;9278;52.156;21.048;2023-04-24T07:20:31;17.80;99.90
18305;DHT22;9278;52.156;21.048;2023-04-24T07:23:00;18.30;99.90
18305;DHT22;9278;52.156;21.048;2023-04-24T07:25:28;18.40;99.90
18305;DHT22;9278;52.156;21.048;2023-04-24T07:27:58;18.90;99.90
18305;DHT22;9278;52.156;21.048;2023-04-24T07:30:26;18.80;99.90
18305;DHT22;9278;52.156;21.048;2023-04-24T07:32:55;18.70;99.90
18305;DHT22;9278;52.156;21.048;2023-04-24T07:35:26;19.00;99.90
18305;DHT22;9278;52.156;21.048;2023-04-24T07:37:55;19.60;99.90
18305;DHT22;9278;52.156;21.048;2023-04-24T07:40:23;19.70;99.90
18305;DHT22;9278;52.156;21.048;2023-04-24T07:42:51;20.00;99.90
18305;DHT22;9278;52.156;21.048;2023-04-24T07:45:19;20.00;99.90
18305;DHT22;9278;52.156;21.048;2023-04-24T07:47:48;20.40;99.90
18305;DHT22;9278;52.156;21.048;2023-04-24T07:50:16;20.40;99.90
18305;DHT22;9278;52.156;21.048;2023-04-24T07:52:46;20.70;99.90
18305;DHT22;9278;52.156;21.048;2023-04-24T07:55:14;20.50;99.90
18305;DHT22;9278;52.156;21.048;2023-04-24T07:57:42;21.10;99.90
18305;DHT22;9278;52.156;21.048;2023-04-24T08:00:12;21.30;99.90
18305;DHT22;9278;52.156;21.048;2023-04-24T08:02:40;21.70;99.90
18305;DHT22;9278;52.156;21.048;2023-04-24T08:05:09;21.60;99.90
18305;DHT22;9278;52.156;21.048;2023-04-24T08:07:38;22.20;99.90
18305;DHT22;9278;52.156;21.048;2023-04-24T08:10:10;22.40;99.90
18305;DHT22;9278;52.156;21.048;2023-04-24T08:12:38;22.30;99.90
18305;DHT22;9278;52.156;21.048;2023-04-24T08:15:08;22.30;99.90
18305;DHT22;9278;52.156;21.048;2023-04-24T08:17:36;22.30;99.90
18305;DHT22;9278;52.156;21.048;2023-04-24T08:20:05;22.00;99.90
18305;DHT22;9278;52.156;21.048;2023-04-24T08:22:37;22.10;99.90
18305;DHT22;9278;52.156;21.048;2023-04-24T08:25:06;22.40;99.90
18305;DHT22;9278;52.156;21.048;2023-04-24T08:27:35;22.60;99.90
18305;DHT22;9278;52.156;21.048;2023-04-24T08:30:06;22.60;99.90
18305;DHT22;9278;52.156;21.048;2023-04-24T08:32:35;22.30;99.90
18305;DHT22;9278;52.156;21.048;2023-04-24T08:35:04;22.20;99.90
18305;DHT22;9278;52.156;21.048;2023-04-24T08:37:32;22.30;99.90
18305;DHT22;9278;52.156;21.048;2023-04-24T08:40:01;22.00;99.90
18305;DHT22;9278;52.156;21.048;2023-04-24T08:42:30;22.10;99.90
18305;DHT22;9278;52.156;21.048;2023-04-24T08:45:01;22.10;99.90
18305;DHT22;9278;52.156;21.048;2023-04-24T08:47:30;22.50;99.90
18305;DHT22;9278;52.156;21.048;2023-04-24T08:49:59;22.30;99.90
18305;DHT22;9278;52.156;21.048;2023-04-24T08:52:30;22.30;99.90
18305;DHT22;9278;52.156;21.048;2023-04-24T08:54:59;21.90;99.90
18305;DHT22;9278;52.156;21.048;2023-04-24T08:57:28;21.90;99.90
18305;DHT22;9278;52.156;21.048;2023-04-24T08:59:58;21.70;99.90
18305;DHT22;9278;52.156;21.048;2023-04-24T09:02:28;21.90;99.90
18305;DHT22;9278;52.156;21.048;2023-04-24T09:04:57;22.20;99.90
18305;DHT22;9278;52.156;21.048;2023-04-24T09:07:27;22.20;99.90
18305;DHT22;9278;52.156;21.048;2023-04-24T09:09:59;22.40;99.90
18305;DHT22;9278;52.156;21.048;2023-04-24T09:12:28;22.70;99.90
18305;DHT22;9278;52.156;21.048;2023-04-24T09:14:56;23.60;99.90
18305;DHT22;9278;52.156;21.048;2023-04-24T09:17:25;24.10;99.90
18305;DHT22;9278;52.156;21.048;2023-04-24T09:19:57;24.30;99.90
18305;DHT22;9278;52.156;21.048;2023-04-24T09:22:25;24.30;99.90
18305;DHT22;9278;52.156;21.048;2023-04-24T09:25:02;24.50;99.90
18305;DHT22;9278;52.156;21.048;2023-04-24T09:27:31;23.90;99.90
18305;DHT22;9278;52.156;21.048;2023-04-24T09:30:00;24.20;99.90
18305;DHT22;9278;52.156;21.048;2023-04-24T09:32:29;23.80;99.90
18305;DHT22;9278;52.156;21.048;2023-04-24T09:35:10;23.50;99.90
18305;DHT22;9278;52.156;21.048;2023-04-24T09:37:41;23.20;99.90
18305;DHT22;9278;52.156;21.048;2023-04-24T09:40:15;22.80;99.90
18305;DHT22;9278;52.156;21.048;2023-04-24T09:42:44;22.60;99.90
18305;DHT22;9278;52.156;21.048;2023-04-24T09:45:13;22.60;99.90
18305;DHT22;9278;52.156;21.048;2023-04-24T09:47:42;22.50;99.90
18305;DHT22;9278;52.156;21.048;2023-04-24T09:50:16;22.40;99.90
18305;DHT22;9278;52.156;21.048;2023-04-24T09:52:57;22.20;99.90
18305;DHT22;9278;52.156;21.048;2023-04-24T09:55:25;22.20;99.90
18305;DHT22;9278;52.156;21.048;2023-04-24T09:57:56;22.40;1.00
18305;DHT22;9278;52.156;21.048;2023-04-24T10:00:26;22.30;99.90
18305;DHT22;9278;52.156;21.048;2023-04-24T10:02:59;22.30;99.90
18305;DHT22;9278;52.156;21.048;2023-04-24T10:05:31;22.30;99.90
18305;DHT22;9278;52.156;21.048;2023-04-24T10:08:04;22.30;99.90
18305;DHT22;9278;52.156;21.048;2023-04-24T10:10:33;22.60;99.90
18305;DHT22;9278;52.156;21.048;2023-04-24T10:13:02;22.50;99.90
18305;DHT22;9278;52.156;21.048;2023-04-24T10:15:32;22.70;99.90
18305;DHT22;9278;52.156;21.048;2023-04-24T10:18:00;22.70;99.90
18305;DHT22;9278;52.156;21.048;2023-04-24T10:20:30;22.50;99.90
18305;DHT22;9278;52.156;21.048;2023-04-24T10:22:59;22.50;99.90
18305;DHT22;9278;52.156;21.048;2023-04-24T10:25:29;22.40;99.90
18305;DHT22;9278;52.156;21.048;2023-04-24T10:27:59;22.30;99.90
18305;DHT22;9278;52.156;21.048;2023-04-24T10:30:29;22.10;99.90
18305;DHT22;9278;52.156;21.048;2023-04-24T10:32:59;22.10;99.90
18305;DHT22;9278;52.156;21.048;2023-04-24T10:35:32;22.00;99.90
18305;DHT22;9278;52.156;21.048;2023-04-24T10:38:03;21.90;99.90
18305;DHT22;9278;52.156;21.048;2023-04-24T10:40:34;21.90;1.00
18305;DHT22;9278;52.156;21.048;2023-04-24T10:43:03;22.10;1.00
18305;DHT22;9278;52.156;21.048;2023-04-24T10:45:36;22.30;1.00
18305;DHT22;9278;52.156;21.048;2023-04-24T10:48:06;22.30;1.00
18305;DHT22;9278;52.156;21.048;2023-04-24T10:50:47;22.20;1.00
18305;DHT22;9278;52.156;21.048;2023-04-24T10:53:17;22.20;1.00
18305;DHT22;9278;52.156;21.048;2023-04-24T10:55:47;22.00;1.00
18305;DHT22;9278;52.156;21.048;2023-04-24T10:58:16;21.90;1.00
18305;DHT22;9278;52.156;21.048;2023-04-24T11:00:55;22.10;1.00
18305;DHT22;9278;52.156;21.048;2023-04-24T11:03:26;22.30;1.00
18305;DHT22;9278;52.156;21.048;2023-04-24T11:05:59;22.40;1.00
18305;DHT22;9278;52.156;21.048;2023-04-24T11:08:36;22.40;1.00
18305;DHT22;9278;52.156;21.048;2023-04-24T11:11:09;22.40;1.00
18305;DHT22;9278;52.156;21.048;2023-04-24T11:14:06;22.40;1.00
18305;DHT22;9278;52.156;21.048;2023-04-24T11:16:38;22.50;1.00
18305;DHT22;9278;52.156;21.048;2023-04-24T11:19:08;22.60;1.00
18305;DHT22;9278;52.156;21.048;2023-04-24T11:21:42;22.50;1.00
18305;DHT22;9278;52.156;21.048;2023-04-24T11:24:31;22.60;1.00
18305;DHT22;9278;52.156;21.048;2023-04-24T11:27:05;22.30;1.00
18305;DHT22;9278;52.156;21.048;2023-04-24T11:29:46;22.40;1.00
18305;DHT22;9278;52.156;21.048;2023-04-24T11:32:16;22.50;1.00
18305;DHT22;9278;52.156;21.048;2023-04-24T11:34:49;22.60;1.00
18305;DHT22;9278;52.156;21.048;2023-04-24T11:37:19;22.70;1.00
18305;DHT22;9278;52.156;21.048;2023-04-24T11:39:50;22.80;1.00
18305;DHT22;9278;52.156;21.048;2023-04-24T11:42:20;22.80;1.00
18305;DHT22;9278;52.156;21.048;2023-04-24T11:44:49;22.70;1.00
18305;DHT22;9278;52.156;21.048;2023-04-24T11:47:19;22.70;1.00
18305;DHT22;9278;52.156;21.048;2023-04-24T11:49:50;22.80;1.00
18305;DHT22;9278;52.156;21.048;2023-04-24T11:52:20;22.80;1.00
18305;DHT22;9278;52.156;21.048;2023-04-24T11:54:49;23.00;1.00
18305;DHT22;9278;52.156;21.048;2023-04-24T11:57:19;23.20;1.00
18305;DHT22;9278;52.156;21.048;2023-04-24T11:59:49;23.20;1.00
18305;DHT22;9278;52.156;21.048;2023-04-24T12:02:24;23.10;1.00
18305;DHT22;9278;52.156;21.048;2023-04-24T12:04:53;23.10;1.00
18305;DHT22;9278;52.156;21.048;2023-04-24T12:07:24;23.10;1.00
18305;DHT22;9278;52.156;21.048;2023-04-24T12:09:57;23.20;99.90
18305;DHT22;9278;52.156;21.048;2023-04-24T12:12:27;23.30;99.90
18305;DHT22;9278;52.156;21.048;2023-04-24T12:14:57;23.20;35.50
18305;DHT22;9278;52.156;21.048;2023-04-24T12:17:27;23.10;1.00
18305;DHT22;9278;52.156;21.048;2023-04-24T12:19:59;23.10;1.00
18305;DHT22;9278;52.156;21.048;2023-04-24T12:22:43;23.20;99.90
18305;DHT22;9278;52.156;21.048;2023-04-24T12:25:13;23.20;99.90
18305;DHT22;9278;52.156;21.048;2023-04-24T12:27:41;23.20;99.90
18305;DHT22;9278;52.156;21.048;2023-04-24T12:30:13;23.40;99.90
18305;DHT22;9278;52.156;21.048;2023-04-24T12:32:42;23.50;99.90
18305;DHT22;9278;52.156;21.048;2023-04-24T12:35:11;23.50;99.90
18305;DHT22;9278;52.156;21.048;2023-04-24T12:37:42;23.40;99.90
18305;DHT22;9278;52.156;21.048;2023-04-24T12:40:14;23.40;99.90
18305;DHT22;9278;52.156;21.048;2023-04-24T12:42:43;22.80;99.90
18305;DHT22;9278;52.156;21.048;2023-04-24T12:45:12;22.10;99.90
18305;DHT22;9278;52.156;21.048;2023-04-24T12:47:42;21.80;98.70
18305;DHT22;9278;52.156;21.048;2023-04-24T12:50:12;22.10;97.00
18305;DHT22;9278;52.156;21.048;2023-04-24T12:52:43;22.40;21.80
18305;DHT22;9278;52.156;21.048;2023-04-24T12:55:11;22.00;99.90
18305;DHT22;9278;52.156;21.048;2023-04-24T12:57:40;21.70;99.90
18305;DHT22;9278;52.156;21.048;2023-04-24T13:00:09;21.60;99.90
18305;DHT22;9278;52.156;21.048;2023-04-24T13:02:37;21.20;99.90
18305;DHT22;9278;52.156;21.048;2023-04-24T13:05:06;21.00;29.00
18305;DHT22;9278;52.156;21.048;2023-04-24T13:07:35;21.20;99.90
18305;DHT22;9278;52.156;21.048;2023-04-24T13:10:06;21.00;99.90
18305;DHT22;9278;52.156;21.048;2023-04-24T13:12:35;20.90;74.20
18305;DHT22;9278;52.156;21.048;2023-04-24T13:15:04;21.00;11.80
18305;DHT22;9278;52.156;21.048;2023-04-24T13:17:32;21.10;99.90
18305;DHT22;9278;52.156;21.048;2023-04-24T13:20:01;21.20;99.90
18305;DHT22;9278;52.156;21.048;2023-04-24T13:22:29;21.40;99.90
18305;DHT22;9278;52.156;21.048;2023-04-24T13:24:57;21.30;38.90
18305;DHT22;9278;52.156;21.048;2023-04-24T13:27:27;21.20;99.90
18305;DHT22;9278;52.156;21.048;2023-04-24T13:29:56;21.10;80.60
18305;DHT22;9278;52.156;21.048;2023-04-24T13:32:24;21.30;99.90
18305;DHT22;9278;52.156;21.048;2023-04-24T13:34:53;22.10;57.00
18305;DHT22;9278;52.156;21.048;2023-04-24T13:39:50;21.30;99.90
18305;DHT22;9278;52.156;21.048;2023-04-24T13:42:18;21.70;99.90
18305;DHT22;9278;52.156;21.048;2023-04-24T13:44:48;22.30;99.90
18305;DHT22;9278;52.156;21.048;2023-04-24T13:47:18;22.70;99.90
18305;DHT22;9278;52.156;21.048;2023-04-24T13:49:46;23.00;99.90
18305;DHT22;9278;52.156;21.048;2023-04-24T13:52:14;22.70;99.90
18305;DHT22;9278;52.156;21.048;2023-04-24T13:54:43;22.90;99.90
18305;DHT22;9278;52.156;21.048;2023-04-24T13:57:13;22.70;1.00
18305;DHT22;9278;52.156;21.048;2023-04-24T13:59:41;22.30;99.90
18305;DHT22;9278;52.156;21.048;2023-04-24T14:02:11;22.50;1.00
18305;DHT22;9278;52.156;21.048;2023-04-24T14:04:39;22.30;99.90
18305;DHT22;9278;52.156;21.048;2023-04-24T14:07:08;22.10;99.90
18305;DHT22;9278;52.156;21.048;2023-04-24T14:09:36;21.90;99.90
18305;DHT22;9278;52.156;21.048;2023-04-24T14:12:05;22.00;99.90
18305;DHT22;9278;52.156;21.048;2023-04-24T14:14:34;22.00;99.90
18305;DHT22;9278;52.156;21.048;2023-04-24T14:17:02;22.20;99.90
18305;DHT22;9278;52.156;21.048;2023-04-24T14:19:31;22.30;99.90
18305;DHT22;9278;52.156;21.048;2023-04-24T14:22:00;22.40;99.90
18305;DHT22;9278;52.156;21.048;2023-04-24T14:24:29;22.40;1.00
18305;DHT22;9278;52.156;21.048;2023-04-24T14:26:57;22.30;99.90
18305;DHT22;9278;52.156;21.048;2023-04-24T14:29:25;22.20;99.90
18305;DHT22;9278;52.156;21.048;2023-04-24T14:31:54;21.80;1.00
18305;DHT22;9278;52.156;21.048;2023-04-24T14:34:22;22.00;99.90
18305;DHT22;9278;52.156;21.048;2023-04-24T14:36:52;21.60;99.90
18305;DHT22;9278;52.156;21.048;2023-04-24T14:39:21;21.60;99.90
18305;DHT22;9278;52.156;21.048;2023-04-24T14:41:49;21.50;99.90
18305;DHT22;9278;52.156;21.048;2023-04-24T14:44:17;21.40;99.90
18305;DHT22;9278;52.156;21.048;2023-04-24T14:46:45;21.40;99.90
18305;DHT22;9278;52.156;21.048;2023-04-24T14:49:14;21.40;99.90
18305;DHT22;9278;52.156;21.048;2023-04-24T14:51:42;21.50;1.00
18305;DHT22;9278;52.156;21.048;2023-04-24T14:54:13;21.50;99.90
18305;DHT22;9278;52.156;21.048;2023-04-24T14:56:41;21.70;99.90
18305;DHT22;9278;52.156;21.048;2023-04-24T14:59:11;21.60;1.00
18305;DHT22;9278;52.156;21.048;2023-04-24T15:01:39;21.60;99.90
18305;DHT22;9278;52.156;21.048;2023-04-24T15:04:08;21.50;99.90
18305;DHT22;9278;52.156;21.048;2023-04-24T15:06:37;21.50;99.90
18305;DHT22;9278;52.156;21.048;2023-04-24T15:09:05;21.40;99.90
18305;DHT22;9278;52.156;21.048;2023-04-24T15:11:35;21.30;99.90
18305;DHT22;9278;52.156;21.048;2023-04-24T15:14:03;21.40;99.90
18305;DHT22;9278;52.156;21.048;2023-04-24T15:16:32;21.10;1.00
18305;DHT22;9278;52.156;21.048;2023-04-24T15:19:00;21.10;1.00
18305;DHT22;9278;52.156;21.048;2023-04-24T15:23:58;21.10;99.90
18305;DHT22;9278;52.156;21.048;2023-04-24T15:26:26;21.00;99.90
18305;DHT22;9278;52.156;21.048;2023-04-24T15:28:56;21.10;99.90
18305;DHT22;9278;52.156;21.048;2023-04-24T15:31:24;21.00;99.90
18305;DHT22;9278;52.156;21.048;2023-04-24T15:33:52;20.90;99.90
18305;DHT22;9278;52.156;21.048;2023-04-24T15:36:21;20.80;99.90
18305;DHT22;9278;52.156;21.048;2023-04-24T15:38:49;20.60;99.90
18305;DHT22;9278;52.156;21.048;2023-04-24T15:41:17;20.50;99.90
18305;DHT22;9278;52.156;21.048;2023-04-24T15:43:46;20.30;99.90
18305;DHT22;9278;52.156;21.048;2023-04-24T15:46:16;20.10;39.20
18305;DHT22;9278;52.156;21.048;2023-04-24T15:48:44;19.80;1.00
18305;DHT22;9278;52.156;21.048;2023-04-24T15:51:12;19.90;99.90
18305;DHT22;9278;52.156;21.048;2023-04-24T15:53:41;20.00;99.90
18305;DHT22;9278;52.156;21.048;2023-04-24T15:56:09;20.10;40.40
18305;DHT22;9278;52.156;21.048;2023-04-24T15:58:38;20.20;61.60
18305;DHT22;9278;52.156;21.048;2023-04-24T16:01:06;20.20;72.70
18305;DHT22;9278;52.156;21.048;2023-04-24T16:03:36;20.40;99.90
18305;DHT22;9278;52.156;21.048;2023-04-24T16:06:05;20.40;99.90
18305;DHT22;9278;52.156;21.048;2023-04-24T16:08:33;20.30;99.90
18305;DHT22;9278;52.156;21.048;2023-04-24T16:11:02;20.20;99.90
18305;DHT22;9278;52.156;21.048;2023-04-24T16:13:30;20.20;99.90
18305;DHT22;9278;52.156;21.048;2023-04-24T16:16:00;20.30;99.90
18305;DHT22;9278;52.156;21.048;2023-04-24T16:18:28;20.40;99.90